Time;durP1;ratioP1;P1;durP2;ratioP2;P2;SDS_P1;SDS_P2;PMS_P1;PMS_P2;Temp;Humidity;BMP_temperature;BMP_pressure;BME280_temperature;BME280_humidity;BME280_pressure;Samples;Min_cycle;Max_cycle;Signal;HPM_P1;HPM_P2
2023/11/03 00:00:04;;;;;;;10.47;1.63;;;8.50;99.90;;;;;;4913208;28;21582;-63
2023/11/03 00:02:30;;;;;;;8.53;1.70;;;8.50;99.90;;;;;;4913086;28;20743;-63
2023/11/03 00:05:00;;;;;;;10.37;1.93;;;8.50;99.90;;;;;;4912925;28;20669;-63
2023/11/03 00:07:26;;;;;;;10.33;1.50;;;8.60;99.90;;;;;;4946139;28;20176;-64
2023/11/03 00:09:52;;;;;;;15.33;2.17;;;8.60;99.90;;;;;;4913230;28;20204;-63
2023/11/03 00:12:18;;;;;;;7.77;1.50;;;8.60;99.90;;;;;;4912866;28;20195;-63
2023/11/03 00:14:44;;;;;;;12.53;1.50;;;8.60;99.90;;;;;;4905255;28;20196;-63
2023/11/03 00:17:10;;;;;;;7.83;1.27;;;8.60;99.90;;;;;;4913059;28;20192;-63
2023/11/03 00:19:36;;;;;;;8.00;1.57;;;8.60;99.90;;;;;;4912999;28;20224;-63
2023/11/03 00:22:05;;;;;;;8.87;1.30;;;8.70;99.90;;;;;;4912382;28;20176;-63
2023/11/03 00:24:31;;;;;;;9.47;1.37;;;8.70;99.90;;;;;;4912722;28;20188;-63
2023/11/03 00:26:57;;;;;;;5.97;1.30;;;8.80;99.90;;;;;;4912912;28;20211;-63
2023/11/03 00:29:23;;;;;;;11.57;1.83;;;8.70;99.90;;;;;;4912852;28;20216;-63
2023/11/03 00:31:49;;;;;;;10.10;1.57;;;8.70;99.90;;;;;;4913015;28;20267;-63
2023/11/03 00:34:15;;;;;;;15.57;1.70;;;8.70;99.90;;;;;;4912502;28;20362;-63
2023/11/03 00:36:42;;;;;;;14.43;1.90;;;8.80;99.90;;;;;;4912940;28;20274;-63
2023/11/03 00:39:12;;;;;;;10.73;1.60;;;8.70;99.90;;;;;;4912584;28;20394;-63
2023/11/03 00:41:49;;;;;;;7.30;1.60;;;8.70;99.90;;;;;;4912745;28;20630;-63
2023/11/03 00:44:15;;;;;;;8.63;1.30;;;8.70;99.90;;;;;;4904452;28;20214;-63
2023/11/03 00:46:42;;;;;;;7.47;1.53;;;8.60;99.90;;;;;;4912795;28;20192;-63
2023/11/03 00:49:09;;;;;;;8.10;1.90;;;8.70;99.90;;;;;;4912499;28;20310;-63
2023/11/03 00:51:35;;;;;;;6.57;1.50;;;8.60;99.90;;;;;;4912489;28;20231;-64
2023/11/03 00:54:03;;;;;;;8.20;1.77;;;8.60;99.90;;;;;;4912274;28;20192;-64
2023/11/03 00:56:28;;;;;;;8.70;1.90;;;8.60;99.90;;;;;;4909222;28;20268;-63
2023/11/03 00:58:54;;;;;;;7.77;1.80;;;8.60;99.90;;;;;;4908428;28;20315;-63
2023/11/03 01:01:20;;;;;;;5.83;1.67;;;8.60;99.90;;;;;;4912316;28;20679;-63
2023/11/03 01:03:46;;;;;;;8.90;2.20;;;8.60;99.90;;;;;;4912083;28;20222;-63
2023/11/03 01:06:11;;;;;;;7.83;1.50;;;8.70;99.90;;;;;;4912250;28;20658;-63
2023/11/03 01:08:37;;;;;;;9.87;1.47;;;8.60;99.90;;;;;;4912107;28;20188;-63
2023/11/03 01:11:03;;;;;;;8.57;1.97;;;8.70;99.90;;;;;;4912277;28;20187;-63
2023/11/03 01:13:30;;;;;;;12.80;2.00;;;8.70;99.90;;;;;;4912034;28;20195;-63
2023/11/03 01:15:55;;;;;;;11.83;1.87;;;8.70;99.90;;;;;;4912424;28;20192;-63
2023/11/03 01:18:21;;;;;;;7.53;1.40;;;8.60;99.90;;;;;;4912076;28;20722;-63
2023/11/03 01:20:52;;;;;;;8.27;1.20;;;8.60;99.90;;;;;;4911992;28;20625;-63
2023/11/03 01:23:18;;;;;;;8.97;1.60;;;8.70;99.90;;;;;;4911704;28;20254;-63
2023/11/03 01:25:45;;;;;;;9.30;1.47;;;8.60;99.90;;;;;;4912053;28;20279;-63
2023/11/03 01:28:12;;;;;;;10.07;1.63;;;8.60;99.90;;;;;;4911793;28;20176;-63
2023/11/03 01:30:39;;;;;;;10.70;1.80;;;8.60;99.90;;;;;;4911991;28;20294;-63
2023/11/03 01:33:05;;;;;;;6.70;1.30;;;8.60;99.90;;;;;;4911080;28;20223;-63
2023/11/03 01:35:31;;;;;;;9.93;1.30;;;8.70;99.90;;;;;;4911784;28;20184;-63
2023/11/03 01:37:57;;;;;;;6.90;1.50;;;8.60;99.90;;;;;;4911733;28;20187;-64
2023/11/03 01:40:23;;;;;;;7.13;1.40;;;8.60;99.90;;;;;;4904056;28;20294;-63
2023/11/03 01:42:49;;;;;;;8.33;1.23;;;8.70;99.90;;;;;;4911679;28;20697;-63
2023/11/03 01:45:15;;;;;;;4.90;1.10;;;8.60;99.90;;;;;;4911391;28;20180;-64
2023/11/03 01:47:41;;;;;;;13.93;1.33;;;8.60;99.90;;;;;;4911840;28;20748;-63
2023/11/03 01:50:08;;;;;;;8.37;1.30;;;8.60;99.90;;;;;;4911373;28;20310;-63
2023/11/03 01:52:36;;;;;;;14.27;2.07;;;8.60;99.90;;;;;;4911675;28;20226;-63
2023/11/03 01:55:02;;;;;;;4.97;1.30;;;8.60;99.90;;;;;;4911440;28;20188;-63
2023/11/03 01:57:29;;;;;;;9.07;1.47;;;8.60;99.90;;;;;;4911556;28;20187;-64
2023/11/03 01:59:55;;;;;;;6.20;1.20;;;8.60;99.90;;;;;;4911622;28;20638;-63
2023/11/03 02:02:22;;;;;;;8.27;1.60;;;8.60;99.90;;;;;;4911389;28;20265;-63
2023/11/03 02:04:48;;;;;;;9.63;1.53;;;8.60;99.90;;;;;;4911205;28;20187;-63
2023/11/03 02:07:14;;;;;;;8.37;1.10;;;8.70;99.90;;;;;;4911422;28;20180;-63
2023/11/03 02:09:40;;;;;;;7.40;1.10;;;8.60;99.90;;;;;;4911437;28;20199;-63
2023/11/03 02:12:06;;;;;;;8.27;1.30;;;8.60;99.90;;;;;;4911456;28;20669;-63
2023/11/03 02:14:32;;;;;;;4.63;1.10;;;8.60;99.90;;;;;;4911190;28;20548;-63
2023/11/03 02:17:01;;;;;;;3.17;1.07;;;8.60;99.90;;;;;;4911410;28;20188;-63
2023/11/03 02:19:29;;;;;;;8.57;1.10;;;8.60;99.90;;;;;;4911025;28;20200;-63
2023/11/03 02:21:55;;;;;;;4.67;1.50;;;8.60;99.90;;;;;;4911448;28;20270;-63
2023/11/03 02:24:20;;;;;;;7.80;1.33;;;8.60;99.90;;;;;;4911164;28;20266;-63
2023/11/03 02:26:46;;;;;;;2.50;0.97;;;8.60;99.90;;;;;;4911236;28;20191;-63
2023/11/03 02:29:12;;;;;;;6.03;1.40;;;8.50;99.90;;;;;;4911138;28;20290;-63
2023/11/03 02:31:38;;;;;;;10.73;1.57;;;8.50;99.90;;;;;;4911212;28;20184;-64
2023/11/03 02:34:04;;;;;;;6.13;1.47;;;8.50;99.90;;;;;;4910803;28;20219;-63
2023/11/03 02:36:29;;;;;;;11.70;1.40;;;8.60;99.90;;;;;;4911069;28;20219;-64
2023/11/03 02:38:55;;;;;;;3.47;1.00;;;8.60;99.90;;;;;;4911137;28;20210;-63
2023/11/03 02:41:21;;;;;;;4.77;1.20;;;8.60;99.90;;;;;;4911029;28;20188;-64
2023/11/03 02:43:47;;;;;;;3.93;1.20;;;8.60;99.90;;;;;;4911578;28;20216;-63
2023/11/03 02:46:13;;;;;;;4.17;1.30;;;8.60;99.90;;;;;;4914378;28;20561;-64
2023/11/03 02:48:39;;;;;;;4.17;0.93;;;8.60;99.90;;;;;;4914298;28;20215;-63
2023/11/03 02:51:05;;;;;;;12.70;1.47;;;8.60;99.90;;;;;;4914161;28;20196;-63
2023/11/03 02:53:31;;;;;;;7.27;1.30;;;8.60;99.90;;;;;;4914390;28;20627;-63
2023/11/03 02:55:57;;;;;;;7.87;1.10;;;8.60;99.90;;;;;;4914595;28;20329;-63
2023/11/03 02:58:28;;;;;;;8.00;1.13;;;8.60;99.90;;;;;;4914238;28;20692;-63
2023/11/03 03:00:55;;;;;;;7.27;1.30;;;8.50;99.90;;;;;;4914419;28;20279;-64
2023/11/03 03:03:20;;;;;;;4.93;1.20;;;8.40;99.90;;;;;;4914020;28;20211;-63
2023/11/03 03:05:46;;;;;;;3.57;0.93;;;8.50;99.90;;;;;;4914088;28;20877;-63
2023/11/03 03:08:11;;;;;;;4.07;1.30;;;8.50;99.90;;;;;;4914237;28;20175;-63
2023/11/03 03:10:37;;;;;;;4.97;1.20;;;8.50;99.90;;;;;;4914116;28;20215;-63
2023/11/03 03:13:04;;;;;;;4.13;0.90;;;8.50;99.90;;;;;;4914067;28;20211;-63
2023/11/03 03:15:29;;;;;;;5.80;1.10;;;8.50;99.90;;;;;;4906287;28;20188;-64
2023/11/03 03:17:55;;;;;;;8.87;1.20;;;8.60;99.90;;;;;;4914036;28;20342;-64
2023/11/03 03:20:21;;;;;;;4.37;0.97;;;8.60;99.90;;;;;;4913786;28;20207;-63
2023/11/03 03:22:46;;;;;;;12.97;1.10;;;8.60;99.90;;;;;;4913928;28;20616;-64
2023/11/03 03:25:12;;;;;;;4.43;0.67;;;8.60;99.90;;;;;;4913654;28;20191;-63
2023/11/03 03:27:37;;;;;;;4.63;0.80;;;8.60;99.90;;;;;;4913926;28;20192;-63
2023/11/03 03:30:03;;;;;;;3.93;0.90;;;8.60;99.90;;;;;;4913781;28;20208;-63
2023/11/03 03:32:29;;;;;;;6.93;1.27;;;8.60;99.90;;;;;;4913774;28;20188;-64
2023/11/03 03:34:55;;;;;;;4.47;1.23;;;8.60;99.90;;;;;;4913731;28;20195;-63
2023/11/03 03:37:20;;;;;;;6.63;1.30;;;8.60;99.90;;;;;;4913560;28;20815;-63
2023/11/03 03:39:46;;;;;;;11.20;1.13;;;8.60;99.90;;;;;;4913683;28;20211;-63
2023/11/03 03:42:11;;;;;;;11.00;0.90;;;8.50;99.90;;;;;;4913397;28;20214;-63
2023/11/03 03:44:41;;;;;;;3.93;1.00;;;8.30;99.90;;;;;;4913329;28;20180;-63
2023/11/03 03:47:08;;;;;;;4.00;0.90;;;8.20;99.90;;;;;;4913468;28;20187;-63
2023/11/03 03:49:34;;;;;;;6.03;0.93;;;8.30;99.90;;;;;;4913500;28;20220;-63
2023/11/03 03:52:00;;;;;;;2.87;0.90;;;8.20;99.90;;;;;;4913627;28;20199;-63
2023/11/03 03:54:25;;;;;;;5.63;0.93;;;8.10;99.90;;;;;;4913099;28;20196;-63
2023/11/03 03:56:51;;;;;;;8.57;1.10;;;8.10;99.90;;;;;;4912735;28;20200;-63
2023/11/03 03:59:17;;;;;;;4.17;1.03;;;8.00;99.90;;;;;;4913279;28;20230;-63
2023/11/03 04:01:43;;;;;;;25.60;3.37;;;7.90;99.90;;;;;;4913471;28;21054;-63
2023/11/03 04:04:09;;;;;;;18.90;1.70;;;7.80;99.90;;;;;;4912863;28;20216;-63
2023/11/03 04:06:34;;;;;;;14.13;1.33;;;7.70;99.90;;;;;;4913493;28;20176;-63
2023/11/03 04:09:00;;;;;;;12.27;1.87;;;7.60;99.90;;;;;;4913245;28;20242;-63
2023/11/03 04:11:26;;;;;;;8.43;1.27;;;7.50;99.90;;;;;;4913276;28;20651;-64
2023/11/03 04:13:51;;;;;;;8.93;1.43;;;7.40;99.90;;;;;;4912922;28;20191;-63
2023/11/03 04:16:17;;;;;;;7.93;1.33;;;7.40;99.90;;;;;;4913039;28;20203;-63
2023/11/03 04:18:43;;;;;;;7.40;1.20;;;7.40;99.90;;;;;;4913051;28;20187;-63
2023/11/03 04:21:09;;;;;;;3.40;1.00;;;7.30;99.90;;;;;;4913056;28;20676;-63
2023/11/03 04:23:35;;;;;;;6.03;1.20;;;7.20;99.90;;;;;;4912911;28;20290;-63
2023/11/03 04:26:01;;;;;;;8.37;1.50;;;7.10;99.90;;;;;;4913158;28;20591;-63
2023/11/03 04:28:26;;;;;;;4.83;0.83;;;7.10;99.90;;;;;;4912804;28;20212;-64
2023/11/03 04:30:52;;;;;;;4.23;0.97;;;7.10;99.90;;;;;;4912872;28;20211;-63
2023/11/03 04:33:17;;;;;;;7.83;0.90;;;7.00;99.90;;;;;;4912759;28;20187;-63
2023/11/03 04:35:43;;;;;;;4.17;0.87;;;6.90;99.90;;;;;;4913032;28;20198;-63
2023/11/03 04:38:11;;;;;;;11.80;1.07;;;6.90;99.90;;;;;;4912952;28;20203;-63
2023/11/03 04:40:37;;;;;;;5.60;1.23;;;6.80;99.90;;;;;;4912832;28;20222;-63
2023/11/03 04:43:02;;;;;;;3.00;0.83;;;6.70;99.90;;;;;;4912772;28;20212;-63
2023/11/03 04:45:28;;;;;;;4.73;1.00;;;6.70;99.90;;;;;;4912542;28;20657;-63
2023/11/03 04:47:54;;;;;;;5.13;1.10;;;6.70;99.90;;;;;;4912683;28;20234;-63
2023/11/03 04:50:19;;;;;;;2.07;1.03;;;6.70;99.90;;;;;;4912461;28;20224;-63
2023/11/03 04:52:45;;;;;;;9.13;0.90;;;6.60;99.90;;;;;;4912655;28;20227;-63
2023/11/03 04:55:11;;;;;;;5.73;1.00;;;6.60;99.90;;;;;;4912276;28;20192;-63
2023/11/03 04:57:37;;;;;;;4.93;1.10;;;6.50;99.90;;;;;;4912634;28;20184;-62
2023/11/03 05:00:08;;;;;;;3.67;0.97;;;6.40;99.90;;;;;;4912526;28;20623;-63
2023/11/03 05:02:35;;;;;;;10.80;1.20;;;6.40;99.90;;;;;;4905483;28;20208;-62
2023/11/03 05:05:01;;;;;;;6.03;1.60;;;6.40;99.90;;;;;;4912252;28;20207;-62
2023/11/03 05:07:26;;;;;;;3.70;1.10;;;6.30;99.90;;;;;;4912359;28;20295;-63
2023/11/03 05:09:52;;;;;;;13.43;1.33;;;6.20;99.90;;;;;;4912350;28;20204;-63
2023/11/03 05:12:17;;;;;;;7.30;1.40;;;6.30;99.90;;;;;;4912204;28;20180;-63
2023/11/03 05:14:43;;;;;;;5.00;0.90;;;6.20;99.90;;;;;;4911920;28;20191;-63
2023/11/03 05:17:08;;;;;;;8.53;1.37;;;6.20;99.90;;;;;;4912218;28;20192;-63
2023/11/03 05:19:35;;;;;;;6.83;1.10;;;6.30;99.90;;;;;;4912264;28;20612;-63
2023/11/03 05:22:01;;;;;;;5.37;1.43;;;6.40;99.90;;;;;;4912222;28;20680;-63
2023/11/03 05:24:27;;;;;;;9.27;2.30;;;6.50;99.90;;;;;;4911840;28;20216;-63
2023/11/03 05:26:53;;;;;;;5.53;1.30;;;6.50;99.90;;;;;;4912201;28;20184;-63
2023/11/03 05:29:22;;;;;;;5.00;1.10;;;6.50;99.90;;;;;;4912042;28;20315;-63
2023/11/03 05:31:49;;;;;;;7.53;1.00;;;6.60;99.90;;;;;;4912032;28;20266;-63
2023/11/03 05:34:15;;;;;;;3.00;0.80;;;6.70;99.90;;;;;;4911809;28;20314;-63
2023/11/03 05:36:41;;;;;;;4.50;1.07;;;6.80;99.90;;;;;;4912145;28;20622;-63
2023/11/03 05:39:08;;;;;;;5.43;1.20;;;6.80;99.90;;;;;;4911928;28;20622;-63
2023/11/03 05:41:34;;;;;;;3.30;1.00;;;6.80;99.90;;;;;;4911948;28;20210;-63
2023/11/03 05:43:59;;;;;;;7.17;1.00;;;6.90;99.90;;;;;;4911727;28;20681;-63
2023/11/03 05:46:25;;;;;;;4.90;1.10;;;7.00;99.90;;;;;;4911624;28;20218;-63
2023/11/03 05:48:56;;;;;;;2.53;1.20;;;7.00;99.90;;;;;;4911865;28;20220;-62
2023/11/03 05:51:22;;;;;;;4.73;1.00;;;7.10;99.90;;;;;;4911688;28;20184;-63
2023/11/03 05:53:51;;;;;;;10.30;1.20;;;7.10;99.90;;;;;;4911538;28;20188;-63
2023/11/03 05:56:17;;;;;;;6.43;1.50;;;7.10;99.90;;;;;;4911577;28;20747;-63
2023/11/03 05:58:43;;;;;;;5.37;1.00;;;7.10;99.90;;;;;;4911754;28;20202;-63
2023/11/03 06:01:08;;;;;;;4.23;1.00;;;7.10;99.90;;;;;;4911706;28;20262;-62
2023/11/03 06:03:35;;;;;;;8.00;1.20;;;7.20;99.90;;;;;;4911205;28;20594;-63
2023/11/03 06:06:00;;;;;;;8.40;0.90;;;7.20;99.90;;;;;;4911536;28;20176;-63
2023/11/03 06:08:26;;;;;;;3.03;0.80;;;7.20;99.90;;;;;;4911441;28;20187;-64
2023/11/03 06:10:52;;;;;;;5.50;0.70;;;7.40;99.90;;;;;;4911496;28;20212;-63
2023/11/03 06:13:18;;;;;;;5.47;0.87;;;7.40;99.90;;;;;;4909966;28;20191;-63
2023/11/03 06:15:44;;;;;;;5.13;0.80;;;7.50;99.90;;;;;;4911323;28;20203;-61
2023/11/03 06:18:09;;;;;;;3.17;0.70;;;7.40;99.90;;;;;;4911865;28;20263;-63
2023/11/03 06:20:35;;;;;;;7.40;1.10;;;7.40;99.90;;;;;;4917591;28;20207;-63
2023/11/03 06:23:01;;;;;;;4.03;0.73;;;7.40;99.90;;;;;;4917752;28;20745;-63
2023/11/03 06:25:27;;;;;;;5.60;1.03;;;7.50;99.90;;;;;;4917225;28;20176;-63
2023/11/03 06:27:53;;;;;;;6.30;0.90;;;7.60;99.90;;;;;;4917896;28;20237;-63
2023/11/03 06:30:18;;;;;;;4.97;0.70;;;7.60;99.90;;;;;;4917412;28;20708;-63
2023/11/03 06:32:44;;;;;;;6.23;1.17;;;7.70;99.90;;;;;;4917647;28;20187;-63
2023/11/03 06:35:09;;;;;;;6.97;1.60;;;7.70;99.90;;;;;;4917063;28;20203;-63
2023/11/03 06:37:35;;;;;;;4.80;0.50;;;7.70;99.90;;;;;;4917309;28;20601;-63
2023/11/03 06:40:01;;;;;;;4.73;1.10;;;7.70;99.90;;;;;;4916380;28;20315;-63
2023/11/03 06:42:26;;;;;;;7.07;0.93;;;7.70;99.90;;;;;;4916021;28;20215;-63
2023/11/03 06:44:52;;;;;;;5.77;1.27;;;7.60;99.90;;;;;;4916305;28;20234;-63
2023/11/03 06:47:17;;;;;;;8.27;1.10;;;7.60;99.90;;;;;;4915155;28;20291;-63
2023/11/03 06:49:46;;;;;;;7.00;1.67;;;7.60;99.90;;;;;;4910308;28;20234;-63
2023/11/03 06:52:12;;;;;;;5.63;1.73;;;7.70;99.90;;;;;;4916460;28;20180;-63
2023/11/03 06:54:38;;;;;;;5.13;1.30;;;7.70;99.90;;;;;;4916364;28;20195;-63
2023/11/03 06:57:05;;;;;;;5.13;1.30;;;7.70;99.90;;;;;;4916558;28;20176;-63
2023/11/03 06:59:35;;;;;;;6.43;1.50;;;7.70;99.90;;;;;;4909032;28;20581;-63
2023/11/03 07:02:00;;;;;;;9.17;1.43;;;7.60;99.90;;;;;;4916557;28;20559;-63
2023/11/03 07:04:26;;;;;;;6.97;1.03;;;7.60;99.90;;;;;;4915903;28;20215;-64
2023/11/03 07:06:52;;;;;;;6.57;1.00;;;7.70;99.90;;;;;;4917132;28;20176;-63
2023/11/03 07:09:18;;;;;;;4.10;1.30;;;7.70;99.90;;;;;;4916274;28;20219;-63
2023/11/03 07:11:44;;;;;;;4.47;1.07;;;7.70;99.90;;;;;;4916658;28;20230;-64
2023/11/03 07:14:10;;;;;;;9.10;1.90;;;7.80;99.90;;;;;;4916268;28;20330;-63
2023/11/03 07:16:42;;;;;;;7.23;0.93;;;7.90;99.90;;;;;;4916226;28;20199;-63
2023/11/03 07:19:08;;;;;;;8.37;1.30;;;7.90;99.90;;;;;;4916287;28;20226;-63
2023/11/03 07:21:34;;;;;;;5.97;1.00;;;8.00;99.90;;;;;;4916305;28;20588;-63
2023/11/03 07:23:59;;;;;;;6.90;1.63;;;8.10;99.90;;;;;;4916082;28;20226;-63
2023/11/03 07:26:27;;;;;;;5.87;1.40;;;8.10;99.90;;;;;;4908375;28;20725;-63
2023/11/03 07:28:52;;;;;;;5.70;1.10;;;8.20;99.90;;;;;;4916144;28;20291;-63
2023/11/03 07:31:18;;;;;;;4.17;1.00;;;8.20;99.90;;;;;;4945863;28;20269;-63
2023/11/03 07:33:43;;;;;;;3.97;1.10;;;8.20;99.90;;;;;;4912885;28;20202;-63
2023/11/03 07:36:10;;;;;;;10.23;1.33;;;8.30;99.90;;;;;;4913461;28;20187;-63
2023/11/03 07:38:35;;;;;;;8.00;1.10;;;8.40;99.90;;;;;;4905431;28;20641;-63
2023/11/03 07:41:02;;;;;;;8.27;1.13;;;8.50;99.90;;;;;;4943412;28;20273;-63
2023/11/03 07:43:28;;;;;;;6.80;1.20;;;8.50;99.90;;;;;;4926172;28;20279;-63
2023/11/03 07:45:54;;;;;;;7.97;1.30;;;8.50;99.90;;;;;;4933658;28;20184;-63
2023/11/03 07:48:19;;;;;;;7.50;1.50;;;8.60;99.90;;;;;;4913118;28;20245;-63
2023/11/03 07:50:45;;;;;;;14.43;1.63;;;8.50;99.90;;;;;;4912898;28;20266;-64
2023/11/03 07:53:10;;;;;;;7.73;1.57;;;8.60;99.90;;;;;;4912634;28;20540;-64
2023/11/03 07:55:36;;;;;;;6.80;1.30;;;8.70;99.90;;;;;;4912728;28;20195;-64
2023/11/03 07:58:03;;;;;;;8.87;1.43;;;8.80;99.90;;;;;;4912988;28;20184;-63
2023/11/03 08:00:29;;;;;;;4.97;1.03;;;8.90;99.90;;;;;;4909540;28;20212;-63
2023/11/03 08:02:55;;;;;;;7.67;1.30;;;9.00;99.90;;;;;;4907833;28;20588;-63
2023/11/03 08:05:22;;;;;;;11.80;1.30;;;9.20;99.90;;;;;;4912113;28;20330;-63
2023/11/03 08:07:47;;;;;;;5.60;0.87;;;9.50;99.90;;;;;;4912808;28;20195;-63
2023/11/03 08:10:13;;;;;;;7.23;1.37;;;9.90;99.90;;;;;;4911247;28;20588;-63
2023/11/03 08:12:39;;;;;;;8.60;1.10;;;10.40;99.90;;;;;;4911679;28;20226;-64
2023/11/03 08:15:06;;;;;;;6.97;0.97;;;10.90;99.90;;;;;;4911347;28;20188;-64
2023/11/03 08:17:32;;;;;;;7.43;1.17;;;11.40;99.90;;;;;;4904784;28;20180;-63
2023/11/03 08:19:58;;;;;;;12.23;1.10;;;11.80;99.90;;;;;;4912143;28;20333;-64
2023/11/03 08:22:24;;;;;;;5.23;1.47;;;12.00;99.90;;;;;;4912122;28;20249;-63
2023/11/03 08:24:49;;;;;;;8.20;1.37;;;12.10;99.90;;;;;;4912132;28;20200;-63
2023/11/03 08:27:15;;;;;;;9.63;1.20;;;12.20;99.90;;;;;;4912049;28;20187;-64
2023/11/03 08:29:41;;;;;;;4.27;1.17;;;12.10;99.90;;;;;;4912319;28;20251;-63
2023/11/03 08:32:10;;;;;;;8.00;1.20;;;12.20;99.90;;;;;;4912203;28;20669;-63
2023/11/03 08:34:35;;;;;;;6.43;0.97;;;12.30;99.90;;;;;;4904405;28;20605;-63
2023/11/03 08:37:01;;;;;;;6.37;1.20;;;12.50;99.90;;;;;;4912112;28;20234;-63
2023/11/03 08:39:27;;;;;;;11.33;1.20;;;12.60;99.90;;;;;;4912045;28;20306;-63
2023/11/03 08:41:53;;;;;;;8.20;1.33;;;12.70;99.90;;;;;;4905761;28;20185;-63
2023/11/03 08:44:22;;;;;;;3.77;1.00;;;12.70;99.90;;;;;;4909668;28;20238;-64
2023/11/03 08:46:48;;;;;;;5.73;1.23;;;12.50;99.90;;;;;;4911935;28;20184;-63
2023/11/03 08:49:14;;;;;;;8.33;1.10;;;12.50;99.90;;;;;;4911476;28;20220;-63
2023/11/03 08:51:39;;;;;;;12.40;1.57;;;12.60;99.90;;;;;;4911919;28;20570;-63
2023/11/03 08:54:05;;;;;;;5.97;1.13;;;12.80;99.90;;;;;;4911823;28;20187;-63
2023/11/03 08:56:31;;;;;;;5.43;1.20;;;12.90;99.90;;;;;;4911667;28;20257;-64
2023/11/03 08:58:57;;;;;;;2.73;1.13;;;13.10;99.90;;;;;;4911792;28;20294;-63
2023/11/03 09:01:22;;;;;;;6.77;1.00;;;12.80;99.90;;;;;;4911542;28;20199;-64
2023/11/03 09:03:48;;;;;;;13.73;1.57;;;12.80;99.90;;;;;;4906264;28;20591;-64
2023/11/03 09:06:13;;;;;;;11.57;1.23;;;12.50;99.90;;;;;;4909573;28;20491;-64
2023/11/03 09:08:39;;;;;;;9.63;1.70;;;12.60;99.90;;;;;;4911605;28;20192;-63
2023/11/03 09:11:05;;;;;;;6.47;1.07;;;12.90;99.90;;;;;;4911624;28;20583;-63
2023/11/03 09:13:31;;;;;;;7.13;1.43;;;13.30;99.90;;;;;;4911174;28;20689;-63
2023/11/03 09:15:57;;;;;;;6.83;1.13;;;14.00;99.90;;;;;;4903969;28;20188;-63
2023/11/03 09:18:24;;;;;;;9.10;1.63;;;14.10;99.90;;;;;;4910157;28;20187;-63
2023/11/03 09:20:50;;;;;;;9.13;1.50;;;14.00;99.90;;;;;;4911347;28;20696;-63
2023/11/03 09:23:16;;;;;;;5.30;1.30;;;14.10;99.90;;;;;;4911157;28;20262;-64
2023/11/03 09:25:42;;;;;;;8.27;1.10;;;14.30;99.90;;;;;;4911483;28;20192;-64
2023/11/03 09:28:08;;;;;;;5.00;1.43;;;14.30;99.90;;;;;;4910723;28;20192;-65
2023/11/03 09:30:34;;;;;;;10.97;1.30;;;14.00;99.90;;;;;;4911214;28;20287;-65
2023/11/03 09:33:00;;;;;;;5.77;1.77;;;14.20;99.90;;;;;;4911251;28;20226;-64
2023/11/03 09:35:25;;;;;;;11.33;1.20;;;14.10;99.90;;;;;;4943923;28;20189;-65
2023/11/03 09:37:51;;;;;;;4.80;1.10;;;13.80;99.90;;;;;;4911162;28;20247;-64
2023/11/03 09:40:17;;;;;;;7.07;1.33;;;13.70;99.90;;;;;;4910991;28;20211;-65
2023/11/03 09:42:46;;;;;;;9.93;1.73;;;13.80;99.90;;;;;;4911209;28;20270;-64
2023/11/03 09:45:15;;;;;;;4.37;1.10;;;13.80;99.90;;;;;;4911177;28;20188;-65
2023/11/03 09:47:42;;;;;;;5.77;1.40;;;13.50;99.90;;;;;;4911223;28;20188;-64
2023/11/03 09:50:10;;;;;;;7.00;1.20;;;13.30;99.90;;;;;;4910988;28;20709;-64
2023/11/03 09:52:47;;;;;;;9.67;1.33;;;13.00;99.90;;;;;;4911033;28;20195;-64
2023/11/03 09:55:19;;;;;;;6.43;1.23;;;12.90;99.90;;;;;;4910108;28;20535;-65
2023/11/03 09:57:46;;;;;;;9.03;1.60;;;12.80;99.90;;;;;;4911005;28;20211;-65
2023/11/03 10:00:16;;;;;;;6.57;1.07;;;12.80;99.90;;;;;;4911065;28;20306;-65
2023/11/03 10:02:43;;;;;;;10.43;2.07;;;13.00;99.90;;;;;;4910753;28;20234;-64
2023/11/03 10:05:17;;;;;;;8.90;1.77;;;13.20;99.90;;;;;;4905716;28;20199;-67
2023/11/03 10:08:17;;;;;;;5.90;1.50;;;13.40;99.90;;;;;;4910710;28;20192;-64
2023/11/03 10:10:47;;;;;;;7.20;1.23;;;13.60;99.90;;;;;;4954306;28;20207;-66
2023/11/03 10:13:15;;;;;;;7.67;1.10;;;13.90;99.90;;;;;;4910817;28;20187;-66
2023/11/03 10:15:42;;;;;;;7.80;1.53;;;14.10;99.90;;;;;;4910880;28;20211;-68
2023/11/03 10:18:08;;;;;;;9.13;1.20;;;14.20;99.90;;;;;;4910829;28;20190;-65
2023/11/03 10:20:34;;;;;;;6.63;1.13;;;14.40;99.90;;;;;;4903063;28;20238;-66
2023/11/03 10:23:00;;;;;;;10.17;1.43;;;14.30;99.90;;;;;;4910583;28;20831;-67
2023/11/03 10:25:26;;;;;;;8.93;1.80;;;14.10;99.90;;;;;;4910585;28;20191;-66
2023/11/03 10:27:55;;;;;;;10.80;1.90;;;13.80;99.90;;;;;;4910600;28;20563;-66
2023/11/03 10:30:22;;;;;;;7.87;1.63;;;13.40;99.90;;;;;;4910456;28;20585;-66
2023/11/03 10:32:48;;;;;;;9.87;1.20;;;13.40;99.90;;;;;;4910522;28;20195;-66
2023/11/03 10:35:14;;;;;;;28.67;2.40;;;13.70;99.90;;;;;;4910093;28;20187;-67
2023/11/03 10:37:41;;;;;;;9.27;1.13;;;13.70;99.90;;;;;;4910775;28;20280;-65
2023/11/03 10:40:13;;;;;;;5.03;1.03;;;13.90;99.90;;;;;;4913041;28;20621;-65
2023/11/03 10:42:48;;;;;;;6.87;1.20;;;13.90;99.90;;;;;;4910240;28;20625;-66
2023/11/03 10:45:16;;;;;;;8.50;1.00;;;13.90;99.90;;;;;;4910190;28;20184;-66
2023/11/03 10:48:11;;;;;;;6.80;1.20;;;13.80;99.90;;;;;;4910442;28;20681;-66
2023/11/03 10:50:45;;;;;;;5.03;0.80;;;13.80;99.90;;;;;;4911955;28;20234;-66
2023/11/03 10:53:42;;;;;;;5.70;1.10;;;14.10;99.90;;;;;;4910150;28;20656;-66
2023/11/03 10:56:10;;;;;;;6.17;0.97;;;14.00;99.90;;;;;;4910279;28;20662;-66
2023/11/03 10:58:37;;;;;;;1.83;0.70;;;14.00;99.90;;;;;;4910417;28;20223;-67
2023/11/03 11:01:19;;;;;;;7.30;0.77;;;14.10;99.90;;;;;;4909697;28;20184;-66
2023/11/03 11:03:54;;;;;;;9.57;1.10;;;14.20;99.90;;;;;;4909454;28;20200;-67
2023/11/03 11:06:26;;;;;;;5.63;0.90;;;14.20;99.90;;;;;;4912824;28;20270;-66
2023/11/03 11:09:00;;;;;;;3.40;0.80;;;14.10;99.90;;;;;;4912658;28;20207;-67
2023/11/03 11:11:27;;;;;;;5.13;0.87;;;14.20;99.90;;;;;;4913292;28;20183;-66
2023/11/03 11:13:52;;;;;;;8.47;1.17;;;14.20;99.90;;;;;;4913136;28;20176;-66
2023/11/03 11:16:18;;;;;;;2.93;0.67;;;14.30;99.90;;;;;;4913214;28;20188;-67
2023/11/03 11:18:46;;;;;;;3.47;0.70;;;14.00;99.90;;;;;;4913414;28;20180;-66
2023/11/03 11:21:14;;;;;;;5.20;0.57;;;14.10;99.90;;;;;;4913020;28;20270;-66
2023/11/03 11:23:44;;;;;;;5.07;0.70;;;13.80;99.90;;;;;;4912941;28;20746;-65
2023/11/03 11:26:20;;;;;;;4.43;0.90;;;13.80;99.90;;;;;;4913125;28;20211;-66
2023/11/03 11:28:46;;;;;;;4.17;0.90;;;13.80;99.90;;;;;;4913218;28;20187;-66
2023/11/03 11:31:27;;;;;;;4.07;1.13;;;13.80;99.90;;;;;;4911572;28;20238;-66
2023/11/03 11:34:00;;;;;;;8.10;1.10;;;13.80;99.90;;;;;;4912839;28;20187;-66
2023/11/03 11:36:26;;;;;;;4.63;0.80;;;13.30;99.90;;;;;;4912930;28;20264;-66
2023/11/03 11:38:54;;;;;;;4.40;0.73;;;13.70;99.90;;;;;;4913035;28;20226;-66
2023/11/03 11:41:22;;;;;;;4.93;0.90;;;13.90;99.90;;;;;;4913120;28;20200;-66
2023/11/03 11:43:49;;;;;;;4.17;0.60;;;14.00;99.90;;;;;;4912676;28;20243;-66
2023/11/03 11:46:14;;;;;;;8.43;1.00;;;14.20;99.90;;;;;;4912781;28;20188;-65
2023/11/03 11:48:42;;;;;;;5.73;0.97;;;14.20;99.90;;;;;;4912902;28;20227;-67
2023/11/03 11:51:08;;;;;;;7.10;0.93;;;14.30;99.90;;;;;;4912906;28;20219;-65
2023/11/03 11:53:34;;;;;;;4.60;0.90;;;14.50;99.90;;;;;;4912760;28;20196;-66
2023/11/03 11:56:00;;;;;;;6.10;0.80;;;14.60;99.90;;;;;;4912750;28;20191;-65
2023/11/03 11:58:28;;;;;;;3.33;0.90;;;14.50;99.90;;;;;;4953848;28;20326;-69
2023/11/03 12:00:54;;;;;;;2.87;0.83;;;14.20;99.90;;;;;;4912658;28;20277;-68
2023/11/03 12:03:20;;;;;;;4.13;0.90;;;14.30;99.90;;;;;;4912287;28;20584;-67
2023/11/03 12:05:46;;;;;;;7.00;1.13;;;14.10;99.90;;;;;;4912424;28;20199;-67
2023/11/03 12:08:12;;;;;;;9.77;1.33;;;13.90;99.90;;;;;;4912559;28;20192;-67
2023/11/03 12:10:38;;;;;;;4.80;0.60;;;13.70;99.90;;;;;;4912586;28;20345;-66
2023/11/03 12:13:04;;;;;;;6.60;1.30;;;13.70;99.90;;;;;;4912595;28;20307;-66
2023/11/03 12:15:30;;;;;;;4.87;0.93;;;13.40;99.90;;;;;;4912102;28;20203;-66
2023/11/03 12:17:56;;;;;;;6.03;1.40;;;13.40;99.90;;;;;;4911963;28;20196;-66
2023/11/03 12:20:22;;;;;;;5.13;1.00;;;13.60;99.90;;;;;;4912144;28;20692;-67
2023/11/03 12:22:48;;;;;;;3.23;0.60;;;13.70;99.90;;;;;;4910967;28;20227;-70
2023/11/03 12:25:13;;;;;;;6.87;1.13;;;13.80;99.90;;;;;;4953366;28;20684;-68
2023/11/03 12:27:39;;;;;;;5.90;1.00;;;13.90;99.90;;;;;;4912223;28;20188;-65
2023/11/03 12:30:05;;;;;;;6.43;1.00;;;13.70;99.90;;;;;;4912188;28;20278;-67
2023/11/03 12:32:32;;;;;;;6.13;1.10;;;13.70;99.90;;;;;;4912391;28;20202;-65
2023/11/03 12:34:58;;;;;;;7.13;0.93;;;14.00;99.90;;;;;;4912276;28;20187;-66
2023/11/03 12:37:24;;;;;;;6.50;1.30;;;14.10;99.90;;;;;;4919604;28;20204;-67
2023/11/03 12:39:57;;;;;;;9.73;1.40;;;14.30;99.90;;;;;;4937260;28;20251;-67
2023/11/03 12:42:23;;;;;;;4.83;0.90;;;14.40;99.90;;;;;;4911716;28;20195;-67
2023/11/03 12:44:59;;;;;;;7.30;1.10;;;14.50;99.90;;;;;;4911988;28;20284;-66
2023/11/03 12:47:41;;;;;;;8.80;0.90;;;14.50;99.90;;;;;;4911983;28;20184;-67
2023/11/03 12:50:19;;;;;;;9.93;1.27;;;14.50;99.90;;;;;;4911891;28;20250;-66